createdAt,value
2017-09-16T00:01:05.614Z,15.00
2017-09-16T00:03:33.367Z,14.90
2017-09-16T00:06:01.115Z,14.90
2017-09-16T00:08:28.755Z,14.90
2017-09-16T00:10:56.389Z,14.90
2017-09-16T00:13:24.802Z,14.90
2017-09-16T00:15:52.493Z,14.80
2017-09-16T00:18:20.149Z,14.90
2017-09-16T00:20:47.777Z,14.80
2017-09-16T00:23:15.493Z,14.80
2017-09-16T00:25:43.108Z,14.80
2017-09-16T00:28:10.727Z,14.80
2017-09-16T00:30:38.387Z,14.80
2017-09-16T00:33:06.018Z,14.80
2017-09-16T00:35:33.685Z,14.70
2017-09-16T00:38:01.437Z,14.70
2017-09-16T00:40:29.108Z,14.70
2017-09-16T00:42:56.720Z,14.70
2017-09-16T00:45:24.337Z,14.70
2017-09-16T00:47:52.777Z,14.70
2017-09-16T00:50:20.462Z,14.60
2017-09-16T00:52:48.084Z,14.60
2017-09-16T00:55:15.891Z,14.60
2017-09-16T00:57:43.520Z,14.60
2017-09-16T01:00:11.176Z,14.60
2017-09-16T01:02:38.862Z,14.60
2017-09-16T01:05:06.475Z,14.60
2017-09-16T01:07:34.906Z,14.60
2017-09-16T01:10:02.598Z,14.50
2017-09-16T01:12:30.358Z,14.60
2017-09-16T01:14:58.028Z,14.50
2017-09-16T01:17:27.202Z,14.40
2017-09-16T01:19:54.882Z,14.40
2017-09-16T01:22:22.730Z,14.50
2017-09-16T01:24:50.417Z,14.50
2017-09-16T01:27:18.184Z,14.50
2017-09-16T01:29:45.820Z,14.40
2017-09-16T01:32:13.457Z,14.40
2017-09-16T01:34:41.115Z,14.40
2017-09-16T01:37:08.732Z,14.40
2017-09-16T01:39:36.396Z,14.40
2017-09-16T01:42:04.021Z,14.40
2017-09-16T01:44:31.671Z,14.40
2017-09-16T01:46:59.336Z,14.40
2017-09-16T01:49:26.961Z,14.30
2017-09-16T01:51:55.389Z,14.30
2017-09-16T01:54:23.008Z,14.20
2017-09-16T01:56:51.400Z,14.30
2017-09-16T01:59:19.048Z,14.20
2017-09-16T02:01:47.440Z,14.30
2017-09-16T02:04:15.185Z,14.20
2017-09-16T02:06:43.591Z,14.20
2017-09-16T02:09:11.221Z,14.20
2017-09-16T02:11:39.637Z,14.20
2017-09-16T02:14:07.336Z,14.10
2017-09-16T02:16:35.005Z,14.20
2017-09-16T02:19:02.646Z,14.20
2017-09-16T02:21:30.326Z,14.20
2017-09-16T02:23:57.993Z,14.20
2017-09-16T02:26:25.638Z,14.20
2017-09-16T02:28:53.303Z,14.10
2017-09-16T02:31:20.976Z,14.10
2017-09-16T02:33:49.371Z,14.10
2017-09-16T02:36:17.795Z,14.10
2017-09-16T02:38:45.484Z,14.10
2017-09-16T02:41:13.642Z,14.10
2017-09-16T02:43:41.279Z,14.10
2017-09-16T02:46:08.939Z,14.10
2017-09-16T02:48:36.674Z,14.10
2017-09-16T02:51:05.077Z,14.00
2017-09-16T02:53:32.720Z,14.00
2017-09-16T02:56:01.117Z,14.00
2017-09-16T02:58:28.831Z,14.00
2017-09-16T03:00:56.474Z,14.00
2017-09-16T03:03:24.149Z,14.00
2017-09-16T03:05:51.796Z,14.00
2017-09-16T03:08:19.583Z,14.00
2017-09-16T03:10:47.229Z,14.00
2017-09-16T03:13:14.988Z,14.00
2017-09-16T03:15:42.623Z,13.90
2017-09-16T03:18:10.244Z,13.90
2017-09-16T03:20:37.903Z,13.90
2017-09-16T03:23:05.529Z,13.90
2017-09-16T03:25:33.176Z,13.90
2017-09-16T03:28:00.795Z,13.90
2017-09-16T03:30:29.336Z,13.90
2017-09-16T03:32:56.974Z,13.80
2017-09-16T03:35:24.617Z,13.90
2017-09-16T03:37:52.269Z,13.80
2017-09-16T03:40:20.674Z,13.80
2017-09-16T03:42:48.338Z,13.80
2017-09-16T03:45:15.984Z,13.80
2017-09-16T03:47:43.600Z,13.80
2017-09-16T03:50:11.371Z,13.80
2017-09-16T03:52:39.028Z,13.80
2017-09-16T03:55:06.695Z,13.80
2017-09-16T03:57:34.360Z,13.70
2017-09-16T04:00:02.012Z,13.70
2017-09-16T04:02:41.591Z,13.70
2017-09-16T04:05:10.045Z,13.70
2017-09-16T04:07:37.708Z,13.70
2017-09-16T04:10:05.470Z,13.70
2017-09-16T04:12:33.210Z,13.70
2017-09-16T04:15:00.847Z,13.70
2017-09-16T04:17:28.513Z,13.60
2017-09-16T04:19:56.214Z,13.70
2017-09-16T04:22:23.978Z,13.60
2017-09-16T04:24:51.722Z,13.60
2017-09-16T04:27:19.486Z,13.60
2017-09-16T04:29:47.129Z,13.60
2017-09-16T04:32:14.775Z,13.50
2017-09-16T04:34:42.418Z,13.60
2017-09-16T04:37:10.834Z,13.50
2017-09-16T04:39:38.478Z,13.50
2017-09-16T04:42:06.151Z,13.50
2017-09-16T04:44:33.786Z,13.50
2017-09-16T04:47:02.180Z,13.50
2017-09-16T04:49:29.847Z,13.40
2017-09-16T04:51:57.474Z,13.50
2017-09-16T04:54:25.918Z,13.50
2017-09-16T04:56:53.555Z,13.40
2017-09-16T04:59:21.211Z,13.40
2017-09-16T05:01:48.846Z,13.40
2017-09-16T05:04:17.249Z,13.40
2017-09-16T05:06:44.935Z,13.40
2017-09-16T05:09:12.560Z,13.40
2017-09-16T05:11:40.221Z,13.40
2017-09-16T05:14:08.647Z,13.40
2017-09-16T05:16:36.283Z,13.30
2017-09-16T05:19:03.926Z,13.40
2017-09-16T05:21:32.366Z,13.40
2017-09-16T05:24:00.008Z,13.30
2017-09-16T05:26:27.644Z,13.40
2017-09-16T05:28:55.305Z,13.40
2017-09-16T05:31:22.949Z,13.30
2017-09-16T05:33:51.375Z,13.30
2017-09-16T05:36:19.014Z,13.30
2017-09-16T05:38:46.633Z,13.30
2017-09-16T05:41:14.288Z,13.30
2017-09-16T05:43:41.915Z,13.30
2017-09-16T05:46:09.532Z,13.30
2017-09-16T05:48:37.974Z,13.30
2017-09-16T05:51:05.602Z,13.30
2017-09-16T05:53:33.236Z,13.30
2017-09-16T05:56:01.666Z,13.30
2017-09-16T05:58:29.303Z,13.30
2017-09-16T06:00:56.920Z,13.30
2017-09-16T06:03:24.579Z,13.30
2017-09-16T06:05:52.194Z,13.40
2017-09-16T06:08:19.862Z,13.30
2017-09-16T06:10:47.507Z,13.40
2017-09-16T06:13:15.133Z,13.40
2017-09-16T06:15:44.123Z,13.40
2017-09-16T06:18:11.766Z,13.40
2017-09-16T06:20:39.416Z,13.40
2017-09-16T06:23:07.822Z,13.50
2017-09-16T06:25:35.479Z,13.40
2017-09-16T06:28:03.210Z,13.50
2017-09-16T06:30:30.844Z,13.50
2017-09-16T06:32:58.496Z,13.50
2017-09-16T06:35:26.135Z,13.60
2017-09-16T06:37:54.622Z,13.60
2017-09-16T06:40:23.200Z,13.60
2017-09-16T06:42:51.637Z,13.70
2017-09-16T06:45:19.328Z,13.60
2017-09-16T06:47:46.970Z,13.70
2017-09-16T06:50:15.154Z,13.80
2017-09-16T06:52:43.024Z,13.80
2017-09-16T06:55:10.686Z,13.90
2017-09-16T06:57:38.333Z,13.90
2017-09-16T07:00:05.995Z,13.90
2017-09-16T07:02:33.612Z,14.00
2017-09-16T07:05:01.293Z,14.00
2017-09-16T07:07:28.991Z,14.10
2017-09-16T07:09:57.016Z,14.10
2017-09-16T07:12:24.655Z,14.10
2017-09-16T07:14:53.084Z,14.20
2017-09-16T07:17:20.719Z,14.10
2017-09-16T07:19:48.395Z,14.20
2017-09-16T07:22:16.017Z,14.20
2017-09-16T07:24:44.443Z,14.20
2017-09-16T07:27:12.108Z,14.20
2017-09-16T07:29:39.775Z,14.30
2017-09-16T07:32:07.411Z,14.30
2017-09-16T07:34:35.915Z,14.40
2017-09-16T07:37:03.569Z,14.40
2017-09-16T07:39:31.211Z,14.40
2017-09-16T07:41:58.838Z,14.50
2017-09-16T07:44:26.535Z,14.50
2017-09-16T07:46:54.184Z,14.60
2017-09-16T07:49:21.800Z,14.60
2017-09-16T07:51:50.226Z,14.60
2017-09-16T07:54:17.922Z,14.50
2017-09-16T07:56:45.566Z,14.60
2017-09-16T07:59:13.188Z,14.60
2017-09-16T08:01:41.016Z,14.70
2017-09-16T08:04:08.649Z,14.70
2017-09-16T08:06:36.286Z,14.70
2017-09-16T08:09:04.708Z,14.70
2017-09-16T08:11:32.592Z,14.70
2017-09-16T08:14:00.221Z,14.80
2017-09-16T08:16:27.911Z,14.80
2017-09-16T08:18:55.543Z,14.90
2017-09-16T08:21:23.179Z,14.90
2017-09-16T08:23:51.597Z,15.00
2017-09-16T08:26:19.230Z,15.00
2017-09-16T08:28:46.929Z,15.10
2017-09-16T08:31:14.551Z,15.10
2017-09-16T08:33:42.973Z,15.20
2017-09-16T08:36:10.654Z,15.20
2017-09-16T08:38:38.279Z,15.30
2017-09-16T08:41:06.014Z,15.30
2017-09-16T08:43:34.446Z,15.40
2017-09-16T08:46:02.118Z,15.30
2017-09-16T08:48:29.807Z,15.40
2017-09-16T08:50:58.199Z,15.60
2017-09-16T08:53:26.638Z,15.60
2017-09-16T08:55:54.301Z,15.60
2017-09-16T08:58:21.953Z,15.70
2017-09-16T09:00:49.779Z,15.80
2017-09-16T09:03:17.651Z,15.80
2017-09-16T09:05:45.422Z,15.90
2017-09-16T09:08:13.221Z,16.00
2017-09-16T09:10:41.199Z,16.00
2017-09-16T09:13:09.066Z,16.10
2017-09-16T09:15:36.924Z,16.10
2017-09-16T09:18:04.798Z,16.20
2017-09-16T09:20:32.659Z,16.20
2017-09-16T09:23:00.531Z,16.30
2017-09-16T09:25:28.394Z,16.30
2017-09-16T09:27:56.267Z,16.40
2017-09-16T09:30:24.130Z,16.50
2017-09-16T09:32:51.996Z,16.60
2017-09-16T09:35:19.861Z,16.70
2017-09-16T09:37:47.589Z,16.70
2017-09-16T09:40:15.495Z,16.80
2017-09-16T09:42:43.252Z,16.80
2017-09-16T09:45:11.124Z,16.90
2017-09-16T09:47:38.996Z,16.90
2017-09-16T09:52:57.349Z,17.00
2017-09-16T09:55:24.984Z,17.00
2017-09-16T09:57:52.763Z,17.10
2017-09-16T10:00:20.533Z,17.20
2017-09-16T10:02:48.294Z,17.20
2017-09-16T10:05:15.920Z,17.30
2017-09-16T10:07:43.638Z,17.30
2017-09-16T10:10:11.301Z,17.40
2017-09-16T10:12:39.761Z,17.50
2017-09-16T10:15:07.423Z,17.50
2017-09-16T10:17:35.040Z,17.60
2017-09-16T10:20:02.682Z,17.60
2017-09-16T10:22:31.151Z,17.80
2017-09-16T10:24:58.765Z,17.70
2017-09-16T10:27:26.411Z,17.90
2017-09-16T10:29:54.079Z,18.00
2017-09-16T10:32:21.769Z,18.10
2017-09-16T10:34:49.453Z,18.10
2017-09-16T10:37:17.312Z,18.20
2017-09-16T10:39:46.468Z,18.30
2017-09-16T10:42:14.147Z,18.30
2017-09-16T10:44:41.922Z,18.50
2017-09-16T10:47:09.594Z,18.50
2017-09-16T10:49:37.223Z,18.50
2017-09-16T10:52:06.956Z,18.60
2017-09-16T10:54:35.412Z,18.70
2017-09-16T10:57:03.099Z,18.70
2017-09-16T10:59:30.722Z,18.80
2017-09-16T11:01:58.395Z,18.80
2017-09-16T11:04:26.019Z,18.80
2017-09-16T11:06:53.746Z,18.90
2017-09-16T11:09:21.416Z,19.00
2017-09-16T11:11:49.050Z,19.00
2017-09-16T11:14:16.695Z,19.00
2017-09-16T11:16:44.353Z,19.00
2017-09-16T11:19:11.985Z,19.00
2017-09-16T11:21:41.111Z,19.10
2017-09-16T11:24:08.764Z,19.10
2017-09-16T11:26:37.141Z,19.30
2017-09-16T11:29:05.544Z,19.40
2017-09-16T11:31:33.335Z,19.30
2017-09-16T11:34:01.014Z,19.40
2017-09-16T11:36:28.632Z,19.50
2017-09-16T11:38:56.286Z,19.60
2017-09-16T11:41:24.090Z,19.60
2017-09-16T11:43:51.763Z,19.70
2017-09-16T11:46:19.509Z,19.80
2017-09-16T11:48:47.137Z,19.80
2017-09-16T11:51:14.802Z,19.90
2017-09-16T11:53:42.434Z,19.90
2017-09-16T11:56:10.835Z,20.00
2017-09-16T11:58:38.498Z,19.90
2017-09-16T12:01:06.117Z,20.00
2017-09-16T12:03:33.734Z,20.10
2017-09-16T12:06:01.391Z,20.10
2017-09-16T12:08:29.014Z,20.20
2017-09-16T12:10:56.651Z,20.20
2017-09-16T12:13:24.304Z,20.20
2017-09-16T12:15:52.070Z,20.30
2017-09-16T12:18:19.719Z,20.20
2017-09-16T12:20:47.373Z,20.20
2017-09-16T12:23:15.075Z,20.20
2017-09-16T12:25:42.704Z,20.20
2017-09-16T12:28:10.398Z,20.20
2017-09-16T12:30:38.023Z,20.20
2017-09-16T12:33:05.722Z,20.20
2017-09-16T12:35:33.378Z,20.20
2017-09-16T12:38:01.034Z,20.20
2017-09-16T12:40:28.690Z,20.30
2017-09-16T12:42:56.368Z,20.40
2017-09-16T12:45:24.112Z,20.50
2017-09-16T12:47:51.726Z,20.50
2017-09-16T12:50:20.147Z,20.60
2017-09-16T12:52:47.779Z,20.50
2017-09-16T12:55:15.494Z,20.60
2017-09-16T12:57:44.794Z,20.70
2017-09-16T13:00:12.413Z,20.70
2017-09-16T13:02:40.117Z,20.80
2017-09-16T13:05:07.732Z,20.80
2017-09-16T13:07:35.390Z,20.90
2017-09-16T13:10:03.024Z,20.90
2017-09-16T13:12:31.463Z,20.90
2017-09-16T13:14:59.078Z,20.90
2017-09-16T13:17:27.522Z,21.00
2017-09-16T13:19:55.285Z,20.90
2017-09-16T13:22:22.923Z,21.00
2017-09-16T13:24:50.590Z,21.00
2017-09-16T13:27:18.232Z,21.00
2017-09-16T13:29:45.864Z,21.00
2017-09-16T13:32:14.313Z,21.00
2017-09-16T13:34:41.975Z,20.90
2017-09-16T13:37:09.613Z,21.00
2017-09-16T13:39:37.288Z,21.00
2017-09-16T13:42:04.940Z,21.00
2017-09-16T13:44:32.589Z,21.00
2017-09-16T13:47:00.291Z,21.00
2017-09-16T13:49:28.031Z,21.00
2017-09-16T13:51:55.652Z,21.00
2017-09-16T13:54:23.301Z,20.90
2017-09-16T13:56:50.943Z,20.90
2017-09-16T13:59:18.600Z,20.90
2017-09-16T14:01:46.364Z,21.00
2017-09-16T14:04:13.980Z,20.90
2017-09-16T14:06:41.638Z,21.00
2017-09-16T14:09:09.257Z,21.00
2017-09-16T14:11:36.913Z,21.00
2017-09-16T14:14:04.574Z,21.00
2017-09-16T14:16:32.190Z,21.00
2017-09-16T14:18:59.853Z,21.00
2017-09-16T14:21:27.538Z,20.90
2017-09-16T14:23:55.152Z,20.90
2017-09-16T14:26:22.816Z,20.80
2017-09-16T14:28:50.437Z,20.80
2017-09-16T14:31:18.834Z,20.80
2017-09-16T14:33:47.274Z,20.70
2017-09-16T14:36:14.936Z,20.70
2017-09-16T14:38:42.612Z,20.70
2017-09-16T14:41:10.235Z,20.70
2017-09-16T14:43:37.902Z,20.70
2017-09-16T14:46:05.611Z,20.70
2017-09-16T14:48:33.361Z,20.70
2017-09-16T14:51:01.015Z,20.60
2017-09-16T14:53:28.628Z,20.60
2017-09-16T14:55:57.042Z,20.60
2017-09-16T14:58:24.665Z,20.60
2017-09-16T15:00:53.052Z,20.60
2017-09-16T15:03:20.773Z,20.60
2017-09-16T15:05:49.167Z,20.60
2017-09-16T15:08:17.605Z,20.60
2017-09-16T15:10:45.295Z,20.50
2017-09-16T15:13:12.935Z,20.60
2017-09-16T15:15:40.591Z,20.50
2017-09-16T15:18:08.210Z,20.50
2017-09-16T15:20:36.659Z,20.50
2017-09-16T15:23:04.334Z,20.40
2017-09-16T15:25:31.959Z,20.50
2017-09-16T15:27:59.594Z,20.40
2017-09-16T15:30:27.263Z,20.40
2017-09-16T15:32:54.882Z,20.40
2017-09-16T15:35:22.515Z,20.40
2017-09-16T15:37:50.188Z,20.40
2017-09-16T15:40:17.804Z,20.40
2017-09-16T15:42:45.514Z,20.30
2017-09-16T15:45:13.177Z,20.30
2017-09-16T15:47:42.304Z,20.20
2017-09-16T15:50:10.718Z,20.20
2017-09-16T15:52:38.389Z,20.20
2017-09-16T15:55:06.017Z,20.20
2017-09-16T15:57:33.716Z,20.10
2017-09-16T16:00:01.343Z,20.10
2017-09-16T16:02:29.039Z,20.10
2017-09-16T16:04:56.686Z,20.10
2017-09-16T16:07:24.310Z,20.00
2017-09-16T16:09:52.764Z,20.00
2017-09-16T16:12:20.418Z,19.90
2017-09-16T16:14:48.064Z,19.90
2017-09-16T16:17:15.684Z,19.90
2017-09-16T16:19:44.066Z,19.80
2017-09-16T16:22:11.787Z,19.70
2017-09-16T16:24:40.173Z,19.70
2017-09-16T16:27:07.950Z,19.70
2017-09-16T16:29:36.388Z,19.70
2017-09-16T16:32:04.036Z,19.60
2017-09-16T16:34:31.675Z,19.60
2017-09-16T16:36:59.602Z,19.60
2017-09-16T16:39:27.448Z,19.60
2017-09-16T16:41:55.339Z,19.60
2017-09-16T16:44:23.200Z,19.50
2017-09-16T16:46:51.065Z,19.50
2017-09-16T16:49:18.932Z,19.50
2017-09-16T16:51:46.798Z,19.50
2017-09-16T16:54:14.664Z,19.40
2017-09-16T16:56:42.535Z,19.40
2017-09-16T16:59:10.394Z,19.40
2017-09-16T17:01:38.266Z,19.30
2017-09-16T17:04:06.050Z,19.30
2017-09-16T17:06:34.005Z,19.30
2017-09-16T17:09:01.860Z,19.20
2017-09-16T17:11:29.657Z,19.20
2017-09-16T17:13:58.286Z,19.20
2017-09-16T17:16:26.075Z,19.10
2017-09-16T17:18:53.948Z,19.10
2017-09-16T17:21:21.809Z,19.10
2017-09-16T17:23:49.681Z,19.10
2017-09-16T17:26:19.078Z,19.00
2017-09-16T17:28:46.863Z,19.00
2017-09-16T17:31:14.714Z,19.00
2017-09-16T17:33:44.084Z,18.90
2017-09-16T17:36:11.895Z,18.90
2017-09-16T17:38:39.847Z,18.90
2017-09-16T17:41:07.715Z,18.90
2017-09-16T17:43:35.583Z,18.80
2017-09-16T17:46:03.453Z,18.80
2017-09-16T17:48:31.312Z,18.80
2017-09-16T17:50:59.590Z,18.70
2017-09-16T17:53:27.458Z,18.70
2017-09-16T17:55:55.329Z,18.70
2017-09-16T17:58:23.199Z,18.60
2017-09-16T18:00:51.061Z,18.60
2017-09-16T18:03:20.461Z,18.50
2017-09-16T18:05:48.336Z,18.50
2017-09-16T18:08:16.158Z,18.50
2017-09-16T18:10:44.061Z,18.50
2017-09-16T18:13:11.932Z,18.50
2017-09-16T18:15:39.800Z,18.40
2017-09-16T18:18:08.483Z,18.40
2017-09-16T18:20:36.432Z,18.30
2017-09-16T18:23:04.173Z,18.40
2017-09-16T18:25:31.990Z,18.30
2017-09-16T18:27:59.838Z,18.30
2017-09-16T18:30:27.598Z,18.20
2017-09-16T18:32:55.347Z,18.30
2017-09-16T18:35:23.144Z,18.20
2017-09-16T18:37:50.886Z,18.20
2017-09-16T18:40:18.669Z,18.20
2017-09-16T18:42:46.419Z,18.10
2017-09-16T18:45:14.237Z,18.10
2017-09-16T18:47:42.320Z,18.10
2017-09-16T18:50:10.331Z,18.00
2017-09-16T18:52:38.072Z,18.00
2017-09-16T18:55:05.814Z,17.90
2017-09-16T18:57:33.640Z,17.90
2017-09-16T19:00:01.377Z,17.90
2017-09-16T19:02:29.188Z,17.90
2017-09-16T19:04:57.720Z,17.80
2017-09-16T19:07:25.551Z,17.70
2017-09-16T19:09:53.322Z,17.80
2017-09-16T19:12:21.100Z,17.70
2017-09-16T19:14:48.918Z,17.70
2017-09-16T19:17:17.467Z,17.60
2017-09-16T19:19:45.227Z,17.60
2017-09-16T19:22:13.028Z,17.60
2017-09-16T19:24:40.813Z,17.60
2017-09-16T19:27:09.347Z,17.50
2017-09-16T19:29:37.162Z,17.50
2017-09-16T19:32:04.974Z,17.50
2017-09-16T19:34:32.803Z,17.50
2017-09-16T19:37:00.567Z,17.40
2017-09-16T19:39:28.402Z,17.40
2017-09-16T19:41:56.962Z,17.40
2017-09-16T19:44:24.778Z,17.30
2017-09-16T19:46:52.610Z,17.30
2017-09-16T19:49:20.232Z,17.30
2017-09-16T19:51:47.918Z,17.30
2017-09-16T19:54:15.601Z,17.30
2017-09-16T19:56:43.256Z,17.30
2017-09-16T19:59:10.931Z,17.20
2017-09-16T20:01:38.572Z,17.20
2017-09-16T20:04:06.301Z,17.20
2017-09-16T20:06:33.977Z,17.20
2017-09-16T20:09:01.645Z,17.10
2017-09-16T20:11:29.320Z,17.20
2017-09-16T20:13:56.966Z,17.10
2017-09-16T20:16:24.684Z,17.10
2017-09-16T20:18:52.338Z,17.10
2017-09-16T20:21:19.984Z,17.10
2017-09-16T20:23:47.671Z,17.10
2017-09-16T20:26:16.818Z,17.10
2017-09-16T20:28:44.710Z,17.00
2017-09-16T20:31:13.327Z,17.00
2017-09-16T20:33:40.989Z,17.00
2017-09-16T20:36:08.654Z,17.00
2017-09-16T20:38:36.341Z,17.00
2017-09-16T20:41:03.993Z,17.00
2017-09-16T20:43:31.679Z,17.00
2017-09-16T20:45:59.380Z,17.00
2017-09-16T20:48:27.043Z,17.00
2017-09-16T20:50:54.718Z,16.90
2017-09-16T20:53:22.423Z,16.90
2017-09-16T20:55:50.060Z,16.90
2017-09-16T20:58:17.770Z,16.90
2017-09-16T21:00:45.439Z,16.90
2017-09-16T21:03:13.081Z,16.90
2017-09-16T21:05:40.754Z,16.80
2017-09-16T21:08:08.456Z,16.80
2017-09-16T21:10:36.144Z,16.80
2017-09-16T21:13:03.785Z,16.80
2017-09-16T21:15:31.416Z,16.80
2017-09-16T21:17:59.488Z,16.80
2017-09-16T21:20:27.203Z,16.80
2017-09-16T21:22:55.213Z,16.80
2017-09-16T21:25:22.953Z,16.70
2017-09-16T21:27:50.786Z,16.70
2017-09-16T21:30:18.467Z,16.70
2017-09-16T21:32:46.097Z,16.70
2017-09-16T21:35:14.517Z,16.70
2017-09-16T21:37:42.215Z,16.70
2017-09-16T21:40:10.638Z,16.60
2017-09-16T21:42:38.342Z,16.60
2017-09-16T21:45:05.990Z,16.60
2017-09-16T21:47:33.758Z,16.60
2017-09-16T21:50:01.536Z,16.60
2017-09-16T21:52:29.375Z,16.60
2017-09-16T21:54:57.142Z,16.60
2017-09-16T21:57:24.887Z,16.60
2017-09-16T21:59:52.681Z,16.60
2017-09-16T22:02:20.451Z,16.60
2017-09-16T22:04:48.278Z,16.50
2017-09-16T22:07:16.034Z,16.50
2017-09-16T22:09:43.671Z,16.50
2017-09-16T22:12:12.083Z,16.50
2017-09-16T22:14:39.710Z,16.50
2017-09-16T22:17:08.145Z,16.50
2017-09-16T22:19:35.784Z,16.40
2017-09-16T22:22:03.441Z,16.50
2017-09-16T22:24:31.078Z,16.40
2017-09-16T22:26:59.489Z,16.40
2017-09-16T22:29:27.122Z,16.40
2017-09-16T22:31:55.528Z,16.40
2017-09-16T22:34:23.192Z,16.40
2017-09-16T22:36:50.845Z,16.40
2017-09-16T22:39:18.481Z,16.40
2017-09-16T22:41:46.867Z,16.30
2017-09-16T22:44:14.522Z,16.30
2017-09-16T22:46:42.930Z,16.30
2017-09-16T22:49:10.548Z,16.20
2017-09-16T22:51:38.449Z,16.30
2017-09-16T22:54:06.110Z,16.30
2017-09-16T22:56:33.820Z,16.30
2017-09-16T22:59:01.441Z,16.20
2017-09-16T23:01:29.100Z,16.20
2017-09-16T23:03:56.730Z,16.20
2017-09-16T23:06:24.398Z,16.20
2017-09-16T23:08:52.855Z,16.20
2017-09-16T23:11:20.602Z,16.10
2017-09-16T23:13:48.237Z,16.10
2017-09-16T23:16:15.886Z,16.10
2017-09-16T23:18:43.554Z,16.10
2017-09-16T23:21:11.186Z,16.10
2017-09-16T23:23:39.623Z,16.00
2017-09-16T23:26:07.394Z,16.00
2017-09-16T23:28:35.023Z,16.00
2017-09-16T23:31:02.665Z,16.00
2017-09-16T23:33:31.068Z,16.00
2017-09-16T23:35:58.723Z,15.90
2017-09-16T23:38:26.363Z,15.90
2017-09-16T23:40:54.777Z,15.90
2017-09-16T23:43:22.396Z,15.80
2017-09-16T23:45:50.814Z,15.80
2017-09-16T23:48:18.425Z,15.80
2017-09-16T23:50:46.041Z,15.80
2017-09-16T23:53:13.710Z,15.80
2017-09-16T23:55:41.333Z,15.80
2017-09-16T23:58:09.867Z,15.70
